釧路 の空港の天気 - METARとTAF

釧路空港 ( RJCK / KUH ) - 北海道釧路市
飛行場実況気象(Metar)
観測時間07/19 08:25 JST (07/18 23:25 UTC)
風向・風速南南西 5m/s
視程4900m
天気現象もや
少しの雲 雲底高度 30m
全天の8割程度の雲 雲底高度 90m
全天の8割程度の雲 雲底高度 120m
気温16℃
湿度94%
気圧1013hPa
METARRJCK 182325Z 20009KT 4900 BR FEW001 BKN003 BKN004 16/15 Q1013 RMK 1ST001 5ST003 6ST004 A2992
過去の天気等 Google飛行場航空写真 Wunderground天気予報

過去48時間のMETAR

飛行場予報(TAF)
発表時間: 7/19 08:16 JST (7/18 23:16 UTC)
予報対象時間: 19日9時 JST ~ 20日15時 JST
風向・風速南 5m/s
視程10km以上
少しの雲 雲底高度 120m
全天の8割程度の雲 雲底高度 460m
19日9時 JST ~ 19日15時 JST に一時的に
視程4000m
天気現象もや
少しの雲 雲底高度 60m
全天の8割程度の雲 雲底高度 120m
19日15時 JST ~ 19日24時 JST に一時的に
視程700m
天気現象弱いしゅう雨 霧
全天を覆う雲 鉛直視程 30m
20日0時 JST ~ 20日9時 JST に一時的に
視程500m
天気現象弱いしゅう雨 霧
全天を覆う雲 鉛直視程 30m
20日9時 JST ~ 20日15時 JST に一時的に
少しの雲 雲底高度 60m
全天の8割程度の雲 雲底高度 150m
TAF RJCK 182316Z 1900/2006 19010KT 9999 FEW004 BKN015
TEMPO 1900/1906 4000 BR FEW002 BKN004
TEMPO 1906/1915 0700 -SHRA FG VV001
TEMPO 1915/2000 0500 -SHRA FG VV001
TEMPO 2000/2006 FEW002 BKN005
日本の空港のMETAR・TAFへのリンク

RJTT 東京国際空港
RJAA 新東京国際空港
RJBB 関西国際空港
RJOO 大阪空港
RJGG 中部国際空港
RJCC 新千歳空港
RJFF 福岡空港
ROAH 那覇空港


RJEC 旭川空港
RJCH 函館空港
RJCK 釧路空港
RJCM 女満別空港
RJCB 帯広空港
RJSA 青森空港
RJSS 仙台空港
RJSK 秋田空港
RJSF 福島空港
RJAH 茨城空港
RJSN 新潟空港
RJNT 富山空港
RJNK 小松飛行場
RJNS 静岡空港
RJOH 美保飛行場
RJOC 出雲空港
RJOB 岡山空港
RJOA 広島空港
RJOI 岩国飛行場
RJOT 高松空港
RJOM 松山空港
RJOK 高知空港
RJFR 北九州空港
RJFT 熊本空港
RJFU 長崎空港
RJFS 佐賀空港
RJFO 大分空港
RJFM 宮崎空港
RJFK 鹿児島空港
ROIG 石垣島空港
RJTY 横田飛行場
ROTM 普天間飛行場
RODN 嘉手納飛行場